sensor_id;sensor_type;location;lat;lon;timestamp;P1;durP1;ratioP1;P2;durP2;ratioP2
71572;SDS011;59408;51.032;9.410;2023-07-02T00:01:49;8.27;;;3.38;;
71572;SDS011;59408;51.032;9.410;2023-07-02T00:04:16;6.60;;;3.60;;
71572;SDS011;59408;51.032;9.410;2023-07-02T00:06:44;8.13;;;3.50;;
71572;SDS011;59408;51.032;9.410;2023-07-02T00:09:11;8.55;;;3.50;;
71572;SDS011;59408;51.032;9.410;2023-07-02T00:11:39;7.97;;;3.30;;
71572;SDS011;59408;51.032;9.410;2023-07-02T00:14:06;7.88;;;3.72;;
71572;SDS011;59408;51.032;9.410;2023-07-02T00:16:34;8.33;;;3.50;;
71572;SDS011;59408;51.032;9.410;2023-07-02T00:19:01;7.53;;;3.50;;
71572;SDS011;59408;51.032;9.410;2023-07-02T00:21:28;9.07;;;3.53;;
71572;SDS011;59408;51.032;9.410;2023-07-02T00:23:56;9.18;;;3.83;;
71572;SDS011;59408;51.032;9.410;2023-07-02T00:26:23;8.07;;;3.50;;
71572;SDS011;59408;51.032;9.410;2023-07-02T00:28:50;8.40;;;3.63;;
71572;SDS011;59408;51.032;9.410;2023-07-02T00:31:16;7.85;;;3.67;;
71572;SDS011;59408;51.032;9.410;2023-07-02T00:33:43;8.05;;;3.88;;
71572;SDS011;59408;51.032;9.410;2023-07-02T00:36:09;9.43;;;3.70;;
71572;SDS011;59408;51.032;9.410;2023-07-02T00:38:36;11.13;;;3.90;;
71572;SDS011;59408;51.032;9.410;2023-07-02T00:41:04;8.70;;;3.80;;
71572;SDS011;59408;51.032;9.410;2023-07-02T00:43:30;9.10;;;3.80;;
71572;SDS011;59408;51.032;9.410;2023-07-02T00:45:57;8.45;;;4.00;;
71572;SDS011;59408;51.032;9.410;2023-07-02T00:48:24;7.20;;;3.55;;
71572;SDS011;59408;51.032;9.410;2023-07-02T00:50:50;6.63;;;3.50;;
71572;SDS011;59408;51.032;9.410;2023-07-02T00:53:17;7.83;;;3.40;;
71572;SDS011;59408;51.032;9.410;2023-07-02T00:55:44;6.22;;;3.33;;
71572;SDS011;59408;51.032;9.410;2023-07-02T00:58:12;6.95;;;3.72;;
71572;SDS011;59408;51.032;9.410;2023-07-02T01:00:38;6.28;;;3.20;;
71572;SDS011;59408;51.032;9.410;2023-07-02T01:03:05;7.05;;;3.15;;
71572;SDS011;59408;51.032;9.410;2023-07-02T01:05:32;8.17;;;3.77;;
71572;SDS011;59408;51.032;9.410;2023-07-02T01:07:58;7.22;;;3.17;;
71572;SDS011;59408;51.032;9.410;2023-07-02T01:10:25;7.57;;;3.50;;
71572;SDS011;59408;51.032;9.410;2023-07-02T01:12:52;6.85;;;3.20;;
71572;SDS011;59408;51.032;9.410;2023-07-02T01:15:20;6.03;;;3.17;;
71572;SDS011;59408;51.032;9.410;2023-07-02T01:17:47;6.23;;;3.17;;
71572;SDS011;59408;51.032;9.410;2023-07-02T01:20:16;8.02;;;3.50;;
71572;SDS011;59408;51.032;9.410;2023-07-02T01:22:42;6.18;;;3.05;;
71572;SDS011;59408;51.032;9.410;2023-07-02T01:25:09;7.78;;;3.53;;
71572;SDS011;59408;51.032;9.410;2023-07-02T01:27:36;6.97;;;3.50;;
71572;SDS011;59408;51.032;9.410;2023-07-02T01:30:03;7.33;;;3.23;;
71572;SDS011;59408;51.032;9.410;2023-07-02T01:32:31;6.53;;;3.30;;
71572;SDS011;59408;51.032;9.410;2023-07-02T01:34:57;7.50;;;4.00;;
71572;SDS011;59408;51.032;9.410;2023-07-02T01:37:25;7.50;;;3.38;;
71572;SDS011;59408;51.032;9.410;2023-07-02T01:39:52;9.27;;;3.85;;
71572;SDS011;59408;51.032;9.410;2023-07-02T01:42:19;7.83;;;3.10;;
71572;SDS011;59408;51.032;9.410;2023-07-02T01:44:46;6.00;;;3.15;;
71572;SDS011;59408;51.032;9.410;2023-07-02T01:47:14;6.78;;;3.70;;
71572;SDS011;59408;51.032;9.410;2023-07-02T01:49:41;6.53;;;3.58;;
71572;SDS011;59408;51.032;9.410;2023-07-02T01:52:07;8.57;;;3.53;;
71572;SDS011;59408;51.032;9.410;2023-07-02T01:54:35;7.87;;;3.67;;
71572;SDS011;59408;51.032;9.410;2023-07-02T01:57:02;7.05;;;3.70;;
71572;SDS011;59408;51.032;9.410;2023-07-02T01:59:29;6.78;;;3.72;;
71572;SDS011;59408;51.032;9.410;2023-07-02T02:01:56;7.15;;;3.80;;
71572;SDS011;59408;51.032;9.410;2023-07-02T02:04:22;7.65;;;3.85;;
71572;SDS011;59408;51.032;9.410;2023-07-02T02:06:49;8.23;;;3.90;;
71572;SDS011;59408;51.032;9.410;2023-07-02T02:09:16;6.82;;;3.63;;
71572;SDS011;59408;51.032;9.410;2023-07-02T02:11:44;6.88;;;3.85;;
71572;SDS011;59408;51.032;9.410;2023-07-02T02:14:12;7.45;;;3.95;;
71572;SDS011;59408;51.032;9.410;2023-07-02T02:16:38;8.50;;;4.20;;
71572;SDS011;59408;51.032;9.410;2023-07-02T02:19:05;8.63;;;4.13;;
71572;SDS011;59408;51.032;9.410;2023-07-02T02:21:32;7.78;;;4.13;;
71572;SDS011;59408;51.032;9.410;2023-07-02T02:23:59;11.35;;;4.30;;
71572;SDS011;59408;51.032;9.410;2023-07-02T02:26:25;8.07;;;4.25;;
71572;SDS011;59408;51.032;9.410;2023-07-02T02:28:53;7.45;;;4.35;;
71572;SDS011;59408;51.032;9.410;2023-07-02T02:31:20;10.80;;;4.37;;
71572;SDS011;59408;51.032;9.410;2023-07-02T02:33:47;10.32;;;4.38;;
71572;SDS011;59408;51.032;9.410;2023-07-02T02:36:13;7.57;;;3.92;;
71572;SDS011;59408;51.032;9.410;2023-07-02T02:38:40;8.60;;;4.10;;
71572;SDS011;59408;51.032;9.410;2023-07-02T02:41:06;9.10;;;4.20;;
71572;SDS011;59408;51.032;9.410;2023-07-02T02:43:33;8.40;;;4.50;;
71572;SDS011;59408;51.032;9.410;2023-07-02T02:46:01;7.32;;;4.35;;
71572;SDS011;59408;51.032;9.410;2023-07-02T02:48:28;8.38;;;4.50;;
71572;SDS011;59408;51.032;9.410;2023-07-02T02:50:54;9.55;;;4.43;;
71572;SDS011;59408;51.032;9.410;2023-07-02T02:53:21;8.40;;;4.25;;
71572;SDS011;59408;51.032;9.410;2023-07-02T02:55:47;7.97;;;4.70;;
71572;SDS011;59408;51.032;9.410;2023-07-02T02:58:14;7.65;;;4.30;;
71572;SDS011;59408;51.032;9.410;2023-07-02T03:00:41;9.02;;;5.00;;
71572;SDS011;59408;51.032;9.410;2023-07-02T03:03:09;8.52;;;4.75;;
71572;SDS011;59408;51.032;9.410;2023-07-02T03:05:35;9.27;;;4.50;;
71572;SDS011;59408;51.032;9.410;2023-07-02T03:08:02;9.27;;;5.00;;
71572;SDS011;59408;51.032;9.410;2023-07-02T03:10:29;9.65;;;4.55;;
71572;SDS011;59408;51.032;9.410;2023-07-02T03:12:56;8.32;;;4.70;;
71572;SDS011;59408;51.032;9.410;2023-07-02T03:15:22;9.18;;;4.60;;
71572;SDS011;59408;51.032;9.410;2023-07-02T03:17:49;10.23;;;5.18;;
71572;SDS011;59408;51.032;9.410;2023-07-02T03:20:17;9.17;;;4.87;;
71572;SDS011;59408;51.032;9.410;2023-07-02T03:22:44;7.53;;;4.82;;
71572;SDS011;59408;51.032;9.410;2023-07-02T03:25:11;7.38;;;4.57;;
71572;SDS011;59408;51.032;9.410;2023-07-02T03:27:37;8.57;;;4.97;;
71572;SDS011;59408;51.032;9.410;2023-07-02T03:30:04;8.65;;;4.82;;
71572;SDS011;59408;51.032;9.410;2023-07-02T03:32:32;9.07;;;5.37;;
71572;SDS011;59408;51.032;9.410;2023-07-02T03:34:59;9.63;;;5.20;;
71572;SDS011;59408;51.032;9.410;2023-07-02T03:37:27;9.05;;;5.28;;
71572;SDS011;59408;51.032;9.410;2023-07-02T03:39:53;8.75;;;5.32;;
71572;SDS011;59408;51.032;9.410;2023-07-02T03:42:20;9.40;;;5.90;;
71572;SDS011;59408;51.032;9.410;2023-07-02T03:44:46;8.53;;;5.00;;
71572;SDS011;59408;51.032;9.410;2023-07-02T03:47:13;10.75;;;5.43;;
71572;SDS011;59408;51.032;9.410;2023-07-02T03:49:39;9.50;;;5.28;;
71572;SDS011;59408;51.032;9.410;2023-07-02T03:52:06;10.73;;;5.40;;
71572;SDS011;59408;51.032;9.410;2023-07-02T03:54:34;9.43;;;5.75;;
71572;SDS011;59408;51.032;9.410;2023-07-02T03:57:01;9.60;;;5.77;;
71572;SDS011;59408;51.032;9.410;2023-07-02T03:59:28;9.95;;;5.47;;
71572;SDS011;59408;51.032;9.410;2023-07-02T04:01:54;9.10;;;5.18;;
71572;SDS011;59408;51.032;9.410;2023-07-02T04:04:21;11.00;;;5.70;;
71572;SDS011;59408;51.032;9.410;2023-07-02T04:06:48;10.55;;;5.45;;
71572;SDS011;59408;51.032;9.410;2023-07-02T04:09:14;11.03;;;5.67;;
71572;SDS011;59408;51.032;9.410;2023-07-02T04:11:42;11.13;;;5.65;;
71572;SDS011;59408;51.032;9.410;2023-07-02T04:14:09;10.55;;;6.40;;
71572;SDS011;59408;51.032;9.410;2023-07-02T04:16:35;11.52;;;6.10;;
71572;SDS011;59408;51.032;9.410;2023-07-02T04:19:02;11.07;;;5.82;;
71572;SDS011;59408;51.032;9.410;2023-07-02T04:21:29;10.00;;;5.47;;
71572;SDS011;59408;51.032;9.410;2023-07-02T04:23:55;10.80;;;6.13;;
71572;SDS011;59408;51.032;9.410;2023-07-02T04:26:22;9.85;;;5.55;;
71572;SDS011;59408;51.032;9.410;2023-07-02T04:29:10;11.07;;;6.15;;
71572;SDS011;59408;51.032;9.410;2023-07-02T04:31:36;10.55;;;5.70;;
71572;SDS011;59408;51.032;9.410;2023-07-02T04:34:03;11.57;;;6.10;;
71572;SDS011;59408;51.032;9.410;2023-07-02T04:36:30;10.95;;;5.80;;
71572;SDS011;59408;51.032;9.410;2023-07-02T04:38:57;9.93;;;5.80;;
71572;SDS011;59408;51.032;9.410;2023-07-02T04:41:23;9.68;;;5.97;;
71572;SDS011;59408;51.032;9.410;2023-07-02T04:43:50;9.68;;;6.03;;
71572;SDS011;59408;51.032;9.410;2023-07-02T04:46:18;10.33;;;5.67;;
71572;SDS011;59408;51.032;9.410;2023-07-02T04:48:44;11.52;;;5.90;;
71572;SDS011;59408;51.032;9.410;2023-07-02T04:51:12;10.68;;;6.45;;
71572;SDS011;59408;51.032;9.410;2023-07-02T04:53:39;12.50;;;6.38;;
71572;SDS011;59408;51.032;9.410;2023-07-02T04:56:06;12.90;;;6.50;;
71572;SDS011;59408;51.032;9.410;2023-07-02T04:58:34;12.33;;;6.37;;
71572;SDS011;59408;51.032;9.410;2023-07-02T05:01:00;13.68;;;7.32;;
71572;SDS011;59408;51.032;9.410;2023-07-02T05:03:29;14.07;;;7.70;;
71572;SDS011;59408;51.032;9.410;2023-07-02T05:05:55;13.57;;;7.20;;
71572;SDS011;59408;51.032;9.410;2023-07-02T05:08:22;12.60;;;7.35;;
71572;SDS011;59408;51.032;9.410;2023-07-02T05:10:48;16.20;;;6.80;;
71572;SDS011;59408;51.032;9.410;2023-07-02T05:13:16;14.25;;;6.57;;
71572;SDS011;59408;51.032;9.410;2023-07-02T05:15:42;10.88;;;6.05;;
71572;SDS011;59408;51.032;9.410;2023-07-02T05:18:09;13.23;;;6.43;;
71572;SDS011;59408;51.032;9.410;2023-07-02T05:20:37;13.80;;;6.07;;
71572;SDS011;59408;51.032;9.410;2023-07-02T05:23:04;13.17;;;6.23;;
71572;SDS011;59408;51.032;9.410;2023-07-02T05:25:31;12.30;;;5.75;;
71572;SDS011;59408;51.032;9.410;2023-07-02T05:27:57;11.15;;;5.43;;
71572;SDS011;59408;51.032;9.410;2023-07-02T05:30:24;9.57;;;5.28;;
71572;SDS011;59408;51.032;9.410;2023-07-02T05:32:51;10.85;;;5.43;;
71572;SDS011;59408;51.032;9.410;2023-07-02T05:35:17;14.17;;;5.30;;
71572;SDS011;59408;51.032;9.410;2023-07-02T05:37:45;10.63;;;5.38;;
71572;SDS011;59408;51.032;9.410;2023-07-02T05:40:12;10.63;;;5.53;;
71572;SDS011;59408;51.032;9.410;2023-07-02T05:42:41;11.10;;;4.88;;
71572;SDS011;59408;51.032;9.410;2023-07-02T05:45:08;10.45;;;5.15;;
71572;SDS011;59408;51.032;9.410;2023-07-02T05:47:35;10.50;;;5.10;;
71572;SDS011;59408;51.032;9.410;2023-07-02T05:50:02;11.57;;;5.30;;
71572;SDS011;59408;51.032;9.410;2023-07-02T05:52:29;10.27;;;4.85;;
71572;SDS011;59408;51.032;9.410;2023-07-02T05:54:57;10.45;;;4.57;;
71572;SDS011;59408;51.032;9.410;2023-07-02T05:57:23;10.27;;;4.80;;
71572;SDS011;59408;51.032;9.410;2023-07-02T05:59:50;13.67;;;5.07;;
71572;SDS011;59408;51.032;9.410;2023-07-02T06:02:16;12.65;;;4.50;;
71572;SDS011;59408;51.032;9.410;2023-07-02T06:04:43;10.75;;;4.63;;
71572;SDS011;59408;51.032;9.410;2023-07-02T06:07:10;10.98;;;4.63;;
71572;SDS011;59408;51.032;9.410;2023-07-02T06:09:36;11.45;;;5.00;;
71572;SDS011;59408;51.032;9.410;2023-07-02T06:12:05;11.27;;;5.07;;
71572;SDS011;59408;51.032;9.410;2023-07-02T06:14:32;11.80;;;5.45;;
71572;SDS011;59408;51.032;9.410;2023-07-02T06:16:58;12.75;;;5.20;;
71572;SDS011;59408;51.032;9.410;2023-07-02T06:19:25;11.77;;;5.60;;
71572;SDS011;59408;51.032;9.410;2023-07-02T06:21:51;11.63;;;5.60;;
71572;SDS011;59408;51.032;9.410;2023-07-02T06:24:18;11.93;;;5.70;;
71572;SDS011;59408;51.032;9.410;2023-07-02T06:26:45;13.57;;;5.68;;
71572;SDS011;59408;51.032;9.410;2023-07-02T06:29:13;10.70;;;5.25;;
71572;SDS011;59408;51.032;9.410;2023-07-02T06:31:39;11.80;;;5.68;;
71572;SDS011;59408;51.032;9.410;2023-07-02T06:34:06;17.13;;;6.30;;
71572;SDS011;59408;51.032;9.410;2023-07-02T06:36:33;12.80;;;5.23;;
71572;SDS011;59408;51.032;9.410;2023-07-02T06:38:59;11.40;;;5.13;;
71572;SDS011;59408;51.032;9.410;2023-07-02T06:41:26;12.00;;;4.85;;
71572;SDS011;59408;51.032;9.410;2023-07-02T06:43:52;10.20;;;5.43;;
71572;SDS011;59408;51.032;9.410;2023-07-02T06:46:20;11.63;;;5.25;;
71572;SDS011;59408;51.032;9.410;2023-07-02T06:48:47;10.57;;;4.70;;
71572;SDS011;59408;51.032;9.410;2023-07-02T06:51:14;10.13;;;4.72;;
71572;SDS011;59408;51.032;9.410;2023-07-02T06:53:41;11.20;;;5.03;;
71572;SDS011;59408;51.032;9.410;2023-07-02T06:56:08;10.25;;;5.20;;
71572;SDS011;59408;51.032;9.410;2023-07-02T06:58:34;13.63;;;5.68;;
71572;SDS011;59408;51.032;9.410;2023-07-02T07:01:01;12.57;;;5.67;;
71572;SDS011;59408;51.032;9.410;2023-07-02T07:03:29;13.48;;;5.90;;
71572;SDS011;59408;51.032;9.410;2023-07-02T07:05:56;13.75;;;6.32;;
71572;SDS011;59408;51.032;9.410;2023-07-02T07:08:22;12.13;;;5.43;;
71572;SDS011;59408;51.032;9.410;2023-07-02T07:10:49;14.45;;;6.60;;
71572;SDS011;59408;51.032;9.410;2023-07-02T07:13:16;15.23;;;7.20;;
71572;SDS011;59408;51.032;9.410;2023-07-02T07:15:43;12.68;;;6.22;;
71572;SDS011;59408;51.032;9.410;2023-07-02T07:18:10;11.60;;;6.18;;
71572;SDS011;59408;51.032;9.410;2023-07-02T07:20:39;12.88;;;6.20;;
71572;SDS011;59408;51.032;9.410;2023-07-02T07:23:07;15.82;;;6.63;;
71572;SDS011;59408;51.032;9.410;2023-07-02T07:25:34;13.00;;;5.90;;
71572;SDS011;59408;51.032;9.410;2023-07-02T07:28:01;13.05;;;5.88;;
71572;SDS011;59408;51.032;9.410;2023-07-02T07:30:27;13.65;;;6.60;;
71572;SDS011;59408;51.032;9.410;2023-07-02T07:32:55;13.77;;;6.38;;
71572;SDS011;59408;51.032;9.410;2023-07-02T07:35:22;13.57;;;6.90;;
71572;SDS011;59408;51.032;9.410;2023-07-02T07:37:50;14.40;;;6.77;;
71572;SDS011;59408;51.032;9.410;2023-07-02T07:40:17;13.63;;;6.63;;
71572;SDS011;59408;51.032;9.410;2023-07-02T07:42:43;15.82;;;7.03;;
71572;SDS011;59408;51.032;9.410;2023-07-02T07:45:10;15.20;;;6.80;;
71572;SDS011;59408;51.032;9.410;2023-07-02T07:47:37;14.88;;;7.10;;
71572;SDS011;59408;51.032;9.410;2023-07-02T07:50:05;15.43;;;7.50;;
71572;SDS011;59408;51.032;9.410;2023-07-02T07:52:32;15.85;;;7.85;;
71572;SDS011;59408;51.032;9.410;2023-07-02T07:55:00;17.75;;;7.65;;
71572;SDS011;59408;51.032;9.410;2023-07-02T07:57:27;15.60;;;7.18;;
71572;SDS011;59408;51.032;9.410;2023-07-02T07:59:54;16.55;;;7.70;;
71572;SDS011;59408;51.032;9.410;2023-07-02T08:02:20;16.43;;;7.47;;
71572;SDS011;59408;51.032;9.410;2023-07-02T08:04:47;16.98;;;8.15;;
71572;SDS011;59408;51.032;9.410;2023-07-02T08:07:14;15.30;;;7.35;;
71572;SDS011;59408;51.032;9.410;2023-07-02T08:09:40;15.20;;;7.50;;
71572;SDS011;59408;51.032;9.410;2023-07-02T08:12:09;16.08;;;8.00;;
71572;SDS011;59408;51.032;9.410;2023-07-02T08:14:35;16.77;;;7.60;;
71572;SDS011;59408;51.032;9.410;2023-07-02T08:17:02;16.08;;;7.40;;
71572;SDS011;59408;51.032;9.410;2023-07-02T08:19:29;18.60;;;8.85;;
71572;SDS011;59408;51.032;9.410;2023-07-02T08:21:56;16.13;;;7.97;;
71572;SDS011;59408;51.032;9.410;2023-07-02T08:24:22;15.73;;;7.63;;
71572;SDS011;59408;51.032;9.410;2023-07-02T08:26:49;15.17;;;7.40;;
71572;SDS011;59408;51.032;9.410;2023-07-02T08:29:17;17.00;;;8.43;;
71572;SDS011;59408;51.032;9.410;2023-07-02T08:31:44;15.88;;;7.63;;
71572;SDS011;59408;51.032;9.410;2023-07-02T08:34:10;16.58;;;8.07;;
71572;SDS011;59408;51.032;9.410;2023-07-02T08:36:37;18.70;;;8.25;;
71572;SDS011;59408;51.032;9.410;2023-07-02T08:39:04;17.07;;;8.27;;
71572;SDS011;59408;51.032;9.410;2023-07-02T08:41:30;17.15;;;8.05;;
71572;SDS011;59408;51.032;9.410;2023-07-02T08:44:08;17.05;;;8.15;;
71572;SDS011;59408;51.032;9.410;2023-07-02T08:46:36;15.65;;;7.90;;
71572;SDS011;59408;51.032;9.410;2023-07-02T08:49:03;18.77;;;8.77;;
71572;SDS011;59408;51.032;9.410;2023-07-02T08:51:30;18.97;;;8.60;;
71572;SDS011;59408;51.032;9.410;2023-07-02T08:53:56;18.20;;;8.35;;
71572;SDS011;59408;51.032;9.410;2023-07-02T08:56:23;19.17;;;8.15;;
71572;SDS011;59408;51.032;9.410;2023-07-02T08:58:50;18.98;;;8.95;;
71572;SDS011;59408;51.032;9.410;2023-07-02T09:01:16;19.23;;;8.50;;
71572;SDS011;59408;51.032;9.410;2023-07-02T09:03:44;16.70;;;8.60;;
71572;SDS011;59408;51.032;9.410;2023-07-02T09:06:11;18.75;;;8.75;;
71572;SDS011;59408;51.032;9.410;2023-07-02T09:08:39;18.38;;;8.93;;
71572;SDS011;59408;51.032;9.410;2023-07-02T09:11:08;19.98;;;8.18;;
71572;SDS011;59408;51.032;9.410;2023-07-02T09:13:43;17.65;;;8.80;;
71572;SDS011;59408;51.032;9.410;2023-07-02T09:16:22;17.70;;;8.13;;
71572;SDS011;59408;51.032;9.410;2023-07-02T09:19:02;20.17;;;7.82;;
71572;SDS011;59408;51.032;9.410;2023-07-02T09:21:41;17.30;;;7.53;;
71572;SDS011;59408;51.032;9.410;2023-07-02T09:24:13;15.75;;;8.10;;
71572;SDS011;59408;51.032;9.410;2023-07-02T09:26:44;17.50;;;8.38;;
71572;SDS011;59408;51.032;9.410;2023-07-02T09:29:11;16.90;;;8.47;;
71572;SDS011;59408;51.032;9.410;2023-07-02T09:31:45;16.15;;;8.23;;
71572;SDS011;59408;51.032;9.410;2023-07-02T09:34:33;17.65;;;8.55;;
71572;SDS011;59408;51.032;9.410;2023-07-02T09:37:01;18.83;;;8.93;;
71572;SDS011;59408;51.032;9.410;2023-07-02T09:39:30;18.40;;;8.88;;
71572;SDS011;59408;51.032;9.410;2023-07-02T09:41:59;16.70;;;8.33;;
71572;SDS011;59408;51.032;9.410;2023-07-02T09:44:27;18.70;;;8.48;;
71572;SDS011;59408;51.032;9.410;2023-07-02T09:46:58;17.73;;;8.55;;
71572;SDS011;59408;51.032;9.410;2023-07-02T09:49:27;18.80;;;8.63;;
71572;SDS011;59408;51.032;9.410;2023-07-02T09:51:59;18.75;;;8.07;;
71572;SDS011;59408;51.032;9.410;2023-07-02T09:54:28;16.53;;;8.53;;
71572;SDS011;59408;51.032;9.410;2023-07-02T09:56:55;18.00;;;8.38;;
71572;SDS011;59408;51.032;9.410;2023-07-02T09:59:22;17.77;;;8.52;;
71572;SDS011;59408;51.032;9.410;2023-07-02T10:01:49;19.35;;;8.90;;
71572;SDS011;59408;51.032;9.410;2023-07-02T10:04:17;19.45;;;8.77;;
71572;SDS011;59408;51.032;9.410;2023-07-02T10:06:48;21.80;;;8.77;;
71572;SDS011;59408;51.032;9.410;2023-07-02T10:09:17;17.45;;;8.55;;
71572;SDS011;59408;51.032;9.410;2023-07-02T10:11:44;17.27;;;8.82;;
71572;SDS011;59408;51.032;9.410;2023-07-02T10:14:11;18.10;;;8.70;;
71572;SDS011;59408;51.032;9.410;2023-07-02T10:16:51;19.73;;;9.13;;
71572;SDS011;59408;51.032;9.410;2023-07-02T10:19:18;18.30;;;8.63;;
71572;SDS011;59408;51.032;9.410;2023-07-02T10:21:46;18.75;;;8.25;;
71572;SDS011;59408;51.032;9.410;2023-07-02T10:24:14;18.25;;;8.93;;
71572;SDS011;59408;51.032;9.410;2023-07-02T10:26:53;18.75;;;8.18;;
71572;SDS011;59408;51.032;9.410;2023-07-02T10:29:21;18.58;;;9.35;;
71572;SDS011;59408;51.032;9.410;2023-07-02T10:31:49;17.37;;;8.33;;
71572;SDS011;59408;51.032;9.410;2023-07-02T10:34:16;17.80;;;9.13;;
71572;SDS011;59408;51.032;9.410;2023-07-02T10:36:53;16.30;;;9.00;;
71572;SDS011;59408;51.032;9.410;2023-07-02T10:39:20;15.70;;;8.48;;
71572;SDS011;59408;51.032;9.410;2023-07-02T10:41:47;16.88;;;8.43;;
71572;SDS011;59408;51.032;9.410;2023-07-02T10:44:15;15.03;;;7.90;;
71572;SDS011;59408;51.032;9.410;2023-07-02T10:46:45;16.83;;;7.93;;
71572;SDS011;59408;51.032;9.410;2023-07-02T10:49:12;17.77;;;8.20;;
71572;SDS011;59408;51.032;9.410;2023-07-02T10:51:38;16.20;;;7.90;;
71572;SDS011;59408;51.032;9.410;2023-07-02T10:54:05;19.30;;;8.25;;
71572;SDS011;59408;51.032;9.410;2023-07-02T10:56:32;16.87;;;8.20;;
71572;SDS011;59408;51.032;9.410;2023-07-02T10:59:01;15.82;;;8.82;;
71572;SDS011;59408;51.032;9.410;2023-07-02T11:01:29;18.38;;;8.25;;
71572;SDS011;59408;51.032;9.410;2023-07-02T11:04:00;16.30;;;8.30;;
71572;SDS011;59408;51.032;9.410;2023-07-02T11:06:28;17.98;;;8.55;;
71572;SDS011;59408;51.032;9.410;2023-07-02T11:08:55;15.87;;;8.13;;
71572;SDS011;59408;51.032;9.410;2023-07-02T11:11:22;18.35;;;8.40;;
71572;SDS011;59408;51.032;9.410;2023-07-02T11:13:50;18.75;;;8.57;;
71572;SDS011;59408;51.032;9.410;2023-07-02T11:16:18;18.05;;;8.48;;
71572;SDS011;59408;51.032;9.410;2023-07-02T11:18:49;15.73;;;7.90;;
71572;SDS011;59408;51.032;9.410;2023-07-02T11:21:16;16.03;;;8.30;;
71572;SDS011;59408;51.032;9.410;2023-07-02T11:23:43;15.57;;;7.90;;
71572;SDS011;59408;51.032;9.410;2023-07-02T11:26:10;15.90;;;8.05;;
71572;SDS011;59408;51.032;9.410;2023-07-02T11:28:46;17.13;;;7.93;;
71572;SDS011;59408;51.032;9.410;2023-07-02T11:31:15;15.90;;;8.38;;
71572;SDS011;59408;51.032;9.410;2023-07-02T11:33:52;17.30;;;7.67;;
71572;SDS011;59408;51.032;9.410;2023-07-02T11:36:19;14.63;;;6.72;;
71572;SDS011;59408;51.032;9.410;2023-07-02T11:38:48;14.75;;;7.22;;
71572;SDS011;59408;51.032;9.410;2023-07-02T11:41:16;17.75;;;7.00;;
71572;SDS011;59408;51.032;9.410;2023-07-02T11:43:46;14.60;;;7.05;;
71572;SDS011;59408;51.032;9.410;2023-07-02T11:46:13;16.83;;;6.80;;
71572;SDS011;59408;51.032;9.410;2023-07-02T11:48:40;15.35;;;7.22;;
71572;SDS011;59408;51.032;9.410;2023-07-02T11:51:08;16.40;;;6.90;;
71572;SDS011;59408;51.032;9.410;2023-07-02T11:53:34;20.38;;;7.50;;
71572;SDS011;59408;51.032;9.410;2023-07-02T11:56:01;14.88;;;7.25;;
71572;SDS011;59408;51.032;9.410;2023-07-02T11:58:28;14.73;;;6.83;;
71572;SDS011;59408;51.032;9.410;2023-07-02T12:00:54;15.90;;;6.75;;
71572;SDS011;59408;51.032;9.410;2023-07-02T12:03:21;16.38;;;6.90;;
71572;SDS011;59408;51.032;9.410;2023-07-02T12:05:48;16.30;;;6.80;;
71572;SDS011;59408;51.032;9.410;2023-07-02T12:08:16;13.02;;;6.93;;
71572;SDS011;59408;51.032;9.410;2023-07-02T12:10:43;15.23;;;7.20;;
71572;SDS011;59408;51.032;9.410;2023-07-02T12:13:09;16.50;;;7.10;;
71572;SDS011;59408;51.032;9.410;2023-07-02T12:15:36;16.77;;;7.10;;
71572;SDS011;59408;51.032;9.410;2023-07-02T12:18:03;14.60;;;6.93;;
71572;SDS011;59408;51.032;9.410;2023-07-02T12:20:30;16.23;;;7.15;;
71572;SDS011;59408;51.032;9.410;2023-07-02T12:22:56;13.73;;;6.70;;
71572;SDS011;59408;51.032;9.410;2023-07-02T12:25:27;14.77;;;6.68;;
71572;SDS011;59408;51.032;9.410;2023-07-02T12:27:54;15.75;;;7.22;;
71572;SDS011;59408;51.032;9.410;2023-07-02T12:30:21;16.65;;;6.93;;
71572;SDS011;59408;51.032;9.410;2023-07-02T12:32:47;16.42;;;7.32;;
71572;SDS011;59408;51.032;9.410;2023-07-02T12:35:14;15.10;;;7.00;;
71572;SDS011;59408;51.032;9.410;2023-07-02T12:37:44;16.33;;;7.43;;
71572;SDS011;59408;51.032;9.410;2023-07-02T12:40:11;15.50;;;6.68;;
71572;SDS011;59408;51.032;9.410;2023-07-02T12:42:40;16.27;;;7.57;;
71572;SDS011;59408;51.032;9.410;2023-07-02T12:45:08;13.95;;;7.20;;
71572;SDS011;59408;51.032;9.410;2023-07-02T12:47:35;17.70;;;7.60;;
71572;SDS011;59408;51.032;9.410;2023-07-02T12:50:02;14.73;;;6.97;;
71572;SDS011;59408;51.032;9.410;2023-07-02T12:52:29;13.85;;;6.85;;
71572;SDS011;59408;51.032;9.410;2023-07-02T12:54:56;15.10;;;6.90;;
71572;SDS011;59408;51.032;9.410;2023-07-02T12:57:23;16.73;;;7.35;;
71572;SDS011;59408;51.032;9.410;2023-07-02T12:59:50;16.27;;;7.13;;
71572;SDS011;59408;51.032;9.410;2023-07-02T13:02:17;15.02;;;7.53;;
71572;SDS011;59408;51.032;9.410;2023-07-02T13:04:44;14.90;;;6.97;;
71572;SDS011;59408;51.032;9.410;2023-07-02T13:07:11;15.73;;;7.13;;
71572;SDS011;59408;51.032;9.410;2023-07-02T13:09:37;14.85;;;7.18;;
71572;SDS011;59408;51.032;9.410;2023-07-02T13:12:04;17.10;;;7.00;;
71572;SDS011;59408;51.032;9.410;2023-07-02T13:14:31;18.85;;;9.38;;
71572;SDS011;59408;51.032;9.410;2023-07-02T13:16:59;14.82;;;7.38;;
71572;SDS011;59408;51.032;9.410;2023-07-02T13:19:26;16.05;;;7.55;;
71572;SDS011;59408;51.032;9.410;2023-07-02T13:21:52;15.30;;;7.22;;
71572;SDS011;59408;51.032;9.410;2023-07-02T13:24:19;14.57;;;6.67;;
71572;SDS011;59408;51.032;9.410;2023-07-02T13:26:46;13.68;;;6.35;;
71572;SDS011;59408;51.032;9.410;2023-07-02T13:29:13;15.23;;;6.85;;
71572;SDS011;59408;51.032;9.410;2023-07-02T13:31:40;15.77;;;7.53;;
71572;SDS011;59408;51.032;9.410;2023-07-02T13:34:08;14.90;;;6.70;;
71572;SDS011;59408;51.032;9.410;2023-07-02T13:36:34;14.60;;;6.77;;
71572;SDS011;59408;51.032;9.410;2023-07-02T13:39:01;15.35;;;7.30;;
71572;SDS011;59408;51.032;9.410;2023-07-02T13:41:28;14.57;;;7.40;;
71572;SDS011;59408;51.032;9.410;2023-07-02T13:43:54;13.50;;;6.78;;
71572;SDS011;59408;51.032;9.410;2023-07-02T13:46:21;14.05;;;7.20;;
71572;SDS011;59408;51.032;9.410;2023-07-02T13:48:48;13.73;;;7.07;;
71572;SDS011;59408;51.032;9.410;2023-07-02T13:51:16;15.27;;;7.40;;
71572;SDS011;59408;51.032;9.410;2023-07-02T13:53:42;15.07;;;7.25;;
71572;SDS011;59408;51.032;9.410;2023-07-02T13:56:09;16.83;;;7.82;;
71572;SDS011;59408;51.032;9.410;2023-07-02T14:01:12;14.17;;;7.13;;
71572;SDS011;59408;51.032;9.410;2023-07-02T14:03:39;17.00;;;7.75;;
71572;SDS011;59408;51.032;9.410;2023-07-02T14:06:06;15.75;;;8.10;;
71572;SDS011;59408;51.032;9.410;2023-07-02T14:08:33;17.02;;;7.45;;
71572;SDS011;59408;51.032;9.410;2023-07-02T14:10:59;15.35;;;7.93;;
71572;SDS011;59408;51.032;9.410;2023-07-02T14:13:26;15.47;;;7.80;;
71572;SDS011;59408;51.032;9.410;2023-07-02T14:15:52;14.20;;;7.70;;
71572;SDS011;59408;51.032;9.410;2023-07-02T14:18:20;18.30;;;8.15;;
71572;SDS011;59408;51.032;9.410;2023-07-02T14:20:47;14.50;;;7.50;;
71572;SDS011;59408;51.032;9.410;2023-07-02T14:23:14;14.30;;;7.13;;
71572;SDS011;59408;51.032;9.410;2023-07-02T14:25:40;14.23;;;8.00;;
71572;SDS011;59408;51.032;9.410;2023-07-02T14:28:08;15.98;;;7.72;;
71572;SDS011;59408;51.032;9.410;2023-07-02T14:30:35;13.50;;;7.28;;
71572;SDS011;59408;51.032;9.410;2023-07-02T14:33:02;16.42;;;8.05;;
71572;SDS011;59408;51.032;9.410;2023-07-02T14:35:30;16.88;;;7.82;;
71572;SDS011;59408;51.032;9.410;2023-07-02T14:37:57;16.67;;;8.10;;
71572;SDS011;59408;51.032;9.410;2023-07-02T14:40:25;15.05;;;7.30;;
71572;SDS011;59408;51.032;9.410;2023-07-02T14:42:51;15.55;;;7.63;;